createdAt,value
2023-08-25T00:01:58.933Z,10.40
2023-08-25T00:04:25.764Z,15.73
2023-08-25T00:06:52.483Z,11.68
2023-08-25T00:09:19.161Z,11.57
2023-08-25T00:11:45.767Z,13.05
2023-08-25T00:14:12.528Z,14.73
2023-08-25T00:16:39.433Z,12.43
2023-08-25T00:19:06.466Z,16.27
2023-08-25T00:21:33.377Z,12.05
2023-08-25T00:24:00.298Z,12.95
2023-08-25T00:26:26.993Z,14.88
2023-08-25T00:28:53.704Z,12.82
2023-08-25T00:31:20.611Z,16.73
2023-08-25T00:33:49.305Z,12.30
2023-08-25T00:36:16.252Z,16.00
2023-08-25T00:38:43.084Z,12.32
2023-08-25T00:41:09.772Z,16.45
2023-08-25T00:43:36.661Z,14.48
2023-08-25T00:46:03.488Z,15.60
2023-08-25T00:48:30.809Z,13.70
2023-08-25T00:50:57.585Z,14.95
2023-08-25T00:53:24.899Z,15.10
2023-08-25T00:55:51.714Z,13.00
2023-08-25T00:58:19.467Z,14.65
2023-08-25T01:00:46.450Z,12.65
2023-08-25T01:03:13.350Z,14.10
2023-08-25T01:05:40.718Z,14.57
2023-08-25T01:08:07.503Z,13.90
2023-08-25T01:10:42.684Z,14.30
2023-08-25T01:13:25.985Z,17.58
2023-08-25T01:15:54.951Z,16.05
2023-08-25T01:18:34.098Z,15.82
2023-08-25T01:21:01.203Z,16.33
2023-08-25T01:23:39.935Z,13.07
2023-08-25T01:26:08.175Z,15.70
2023-08-25T01:28:34.862Z,13.15
2023-08-25T01:31:02.442Z,13.73
2023-08-25T01:33:31.928Z,13.32
2023-08-25T01:36:14.440Z,13.38
2023-08-25T01:38:56.018Z,13.95
2023-08-25T01:41:43.229Z,16.33
2023-08-25T01:44:11.685Z,13.18
2023-08-25T01:46:39.821Z,20.60
2023-08-25T01:49:09.043Z,17.10
2023-08-25T01:51:36.478Z,14.38
2023-08-25T01:54:04.423Z,14.70
2023-08-25T01:56:31.256Z,14.20
2023-08-25T01:58:57.933Z,14.43
2023-08-25T02:01:26.981Z,16.05
2023-08-25T02:03:53.844Z,16.63
2023-08-25T02:06:20.505Z,16.38
2023-08-25T02:08:47.301Z,16.08
2023-08-25T02:11:14.210Z,15.13
2023-08-25T02:13:43.818Z,16.73
2023-08-25T02:16:10.611Z,21.10
2023-08-25T02:18:38.836Z,18.90
2023-08-25T02:21:05.729Z,19.27
2023-08-25T02:23:32.520Z,22.83
2023-08-25T02:26:01.112Z,21.45
2023-08-25T02:28:29.004Z,21.63
2023-08-25T02:30:55.890Z,20.65
2023-08-25T02:33:22.642Z,21.20
2023-08-25T02:35:49.377Z,24.25
2023-08-25T02:38:16.581Z,23.52
2023-08-25T02:40:43.804Z,22.75
2023-08-25T02:43:10.712Z,23.85
2023-08-25T02:45:37.918Z,22.58
2023-08-25T02:48:05.277Z,25.30
2023-08-25T02:50:32.251Z,20.25
2023-08-25T02:52:59.010Z,28.20
2023-08-25T02:55:25.921Z,24.73
2023-08-25T02:57:53.769Z,24.92
2023-08-25T03:00:24.341Z,23.85
2023-08-25T03:05:18.991Z,20.42
2023-08-25T03:07:45.894Z,21.08
2023-08-25T03:10:13.301Z,20.65
2023-08-25T03:12:41.274Z,16.58
2023-08-25T03:15:08.830Z,16.77
2023-08-25T03:17:35.874Z,67.28
2023-08-25T03:20:04.042Z,21.15
2023-08-25T03:22:31.827Z,23.75
2023-08-25T03:24:58.660Z,19.63
2023-08-25T03:27:25.601Z,22.73
2023-08-25T03:29:52.335Z,22.95
2023-08-25T03:32:19.152Z,24.38
2023-08-25T03:34:45.869Z,33.00
2023-08-25T03:37:13.319Z,31.05
2023-08-25T03:39:40.381Z,26.45
2023-08-25T03:42:07.437Z,29.25
2023-08-25T03:44:34.219Z,29.85
2023-08-25T03:47:01.202Z,25.90
2023-08-25T03:49:30.926Z,34.47
2023-08-25T03:51:58.901Z,30.95
2023-08-25T03:54:26.025Z,32.90
2023-08-25T03:56:52.809Z,29.45
2023-08-25T03:59:20.216Z,31.98
2023-08-25T04:01:47.636Z,30.63
2023-08-25T04:04:14.579Z,27.48
2023-08-25T04:06:42.920Z,28.15
2023-08-25T04:09:10.593Z,30.75
2023-08-25T04:11:37.794Z,27.48
2023-08-25T04:14:04.482Z,27.90
2023-08-25T04:16:34.697Z,24.08
2023-08-25T04:19:03.251Z,23.42
2023-08-25T04:21:32.311Z,26.25
2023-08-25T04:23:59.105Z,22.98
2023-08-25T04:26:25.938Z,23.17
2023-08-25T04:28:53.216Z,22.70
2023-08-25T04:31:21.136Z,28.38
2023-08-25T04:33:53.734Z,23.85
2023-08-25T04:36:20.485Z,24.58
2023-08-25T04:38:47.278Z,25.63
2023-08-25T04:41:14.548Z,22.75
2023-08-25T04:43:41.320Z,20.58
2023-08-25T04:46:08.886Z,20.42
2023-08-25T04:48:37.848Z,19.35
2023-08-25T04:51:05.328Z,17.77
2023-08-25T04:53:32.083Z,18.38
2023-08-25T04:55:58.927Z,17.13
2023-08-25T04:58:26.264Z,21.08
2023-08-25T05:00:54.650Z,17.25
2023-08-25T05:03:22.829Z,13.80
2023-08-25T05:05:51.444Z,16.02
2023-08-25T05:08:19.243Z,16.05
2023-08-25T05:10:46.185Z,16.92
2023-08-25T05:13:14.776Z,17.45
2023-08-25T05:15:42.316Z,16.52
2023-08-25T05:18:10.899Z,16.23
2023-08-25T05:20:38.061Z,18.35
2023-08-25T05:23:07.108Z,17.35
2023-08-25T05:25:34.421Z,13.60
2023-08-25T05:28:01.031Z,15.82
2023-08-25T05:30:28.555Z,15.95
2023-08-25T05:32:56.810Z,14.27
2023-08-25T05:35:46.534Z,13.80
2023-08-25T05:38:14.115Z,13.70
2023-08-25T05:40:40.796Z,13.07
2023-08-25T05:43:07.737Z,15.50
2023-08-25T05:45:35.892Z,15.20
2023-08-25T05:48:03.359Z,15.00
2023-08-25T05:50:31.081Z,17.45
2023-08-25T05:52:57.930Z,13.35
2023-08-25T05:55:25.023Z,18.98
2023-08-25T05:57:52.388Z,17.30
2023-08-25T06:00:20.096Z,13.68
2023-08-25T06:02:46.936Z,13.82
2023-08-25T06:05:14.053Z,13.05
2023-08-25T06:07:40.809Z,13.43
2023-08-25T06:10:08.137Z,14.27
2023-08-25T06:12:35.013Z,11.38
2023-08-25T06:15:01.772Z,13.10
2023-08-25T06:17:30.042Z,15.25
2023-08-25T06:19:56.841Z,14.02
2023-08-25T06:22:23.477Z,11.82
2023-08-25T06:24:50.152Z,10.38
2023-08-25T06:27:16.807Z,13.77
2023-08-25T06:29:43.507Z,8.93
2023-08-25T06:32:10.247Z,12.20
2023-08-25T06:34:36.978Z,12.30
2023-08-25T06:37:03.658Z,13.65
2023-08-25T06:39:30.285Z,9.20
2023-08-25T06:41:56.892Z,9.00
2023-08-25T06:44:25.290Z,15.35
2023-08-25T06:46:51.981Z,10.77
2023-08-25T06:49:18.644Z,11.40
2023-08-25T06:51:45.336Z,9.65
2023-08-25T06:54:12.083Z,8.90
2023-08-25T06:56:38.994Z,13.10
2023-08-25T06:59:05.615Z,15.35
2023-08-25T07:01:32.542Z,10.13
2023-08-25T07:03:59.501Z,10.00
2023-08-25T07:06:26.303Z,9.98
2023-08-25T07:08:53.007Z,8.70
2023-08-25T07:11:19.736Z,9.60
2023-08-25T07:13:46.602Z,14.18
2023-08-25T07:16:13.523Z,11.23
2023-08-25T07:18:40.397Z,7.65
2023-08-25T07:21:07.613Z,7.53
2023-08-25T07:23:34.725Z,8.07
2023-08-25T07:26:01.375Z,9.90
2023-08-25T07:28:28.196Z,7.65
2023-08-25T07:30:54.973Z,11.00
2023-08-25T07:33:21.695Z,8.98
2023-08-25T07:35:48.462Z,11.18
2023-08-25T07:38:15.285Z,9.98
2023-08-25T07:40:42.250Z,7.82
2023-08-25T07:43:10.171Z,8.23
2023-08-25T07:45:38.012Z,5.32
2023-08-25T07:48:05.222Z,10.55
2023-08-25T07:50:33.395Z,9.90
2023-08-25T07:53:00.756Z,7.10
2023-08-25T07:55:28.150Z,6.93
2023-08-25T07:57:55.616Z,7.05
2023-08-25T08:00:22.816Z,4.20
2023-08-25T08:02:50.707Z,10.02
2023-08-25T08:05:18.578Z,5.43
2023-08-25T08:07:46.942Z,7.50
2023-08-25T08:10:16.549Z,3.80
2023-08-25T08:12:45.501Z,3.85
2023-08-25T08:15:13.726Z,9.38
2023-08-25T08:17:40.951Z,4.70
2023-08-25T08:20:13.662Z,4.45
2023-08-25T08:22:42.148Z,5.07
2023-08-25T08:25:11.690Z,4.38
2023-08-25T08:27:40.482Z,6.63
2023-08-25T08:30:08.524Z,4.53
2023-08-25T08:32:36.428Z,3.15
2023-08-25T08:35:10.051Z,4.45
2023-08-25T08:37:37.459Z,4.55
2023-08-25T08:40:11.643Z,3.60
2023-08-25T08:42:39.253Z,3.55
2023-08-25T08:45:11.566Z,6.43
2023-08-25T08:47:39.471Z,4.90
2023-08-25T08:50:07.894Z,4.63
2023-08-25T08:52:34.966Z,5.15
2023-08-25T08:55:01.765Z,7.50
2023-08-25T08:57:29.690Z,3.88
2023-08-25T08:59:59.840Z,4.18
2023-08-25T09:05:01.293Z,2.63
2023-08-25T09:07:29.400Z,4.20
2023-08-25T09:09:59.130Z,5.43
2023-08-25T09:14:53.419Z,8.02
2023-08-25T09:17:20.876Z,3.30
2023-08-25T09:19:47.556Z,3.22
2023-08-25T09:22:17.458Z,2.92
2023-08-25T09:24:44.987Z,3.25
2023-08-25T09:27:22.874Z,3.65
2023-08-25T09:29:57.808Z,2.58
2023-08-25T09:32:25.512Z,4.97
2023-08-25T09:34:52.507Z,3.13
2023-08-25T09:37:19.148Z,4.15
2023-08-25T09:39:46.010Z,3.40
2023-08-25T09:42:12.726Z,2.40
2023-08-25T09:44:41.842Z,3.15
2023-08-25T09:47:10.968Z,3.85
2023-08-25T09:49:39.268Z,3.55
2023-08-25T09:52:10.912Z,4.07
2023-08-25T09:54:37.743Z,4.65
2023-08-25T09:57:04.388Z,2.65
2023-08-25T09:59:31.685Z,3.90
2023-08-25T10:01:59.018Z,3.83
2023-08-25T10:04:25.793Z,5.40
2023-08-25T10:06:52.551Z,4.90
2023-08-25T10:09:20.373Z,3.47
2023-08-25T10:11:49.578Z,4.32
2023-08-25T10:14:18.470Z,3.72
2023-08-25T10:16:52.778Z,5.57
2023-08-25T10:19:27.609Z,5.00
2023-08-25T10:21:55.404Z,5.05
2023-08-25T10:24:29.771Z,3.45
2023-08-25T10:26:57.084Z,3.75
2023-08-25T10:29:24.701Z,8.63
2023-08-25T10:31:53.267Z,6.30
2023-08-25T10:34:34.401Z,4.32
2023-08-25T10:37:17.505Z,4.53
2023-08-25T10:39:49.226Z,4.07
2023-08-25T10:42:34.916Z,5.72
2023-08-25T10:45:12.217Z,5.18
2023-08-25T10:47:46.007Z,4.60
2023-08-25T10:50:14.842Z,5.05
2023-08-25T10:52:45.661Z,5.40
2023-08-25T10:55:27.340Z,3.72
2023-08-25T10:57:54.938Z,5.65
2023-08-25T11:00:44.627Z,3.00
2023-08-25T11:03:12.157Z,8.10
2023-08-25T11:05:44.796Z,6.45
2023-08-25T11:08:30.281Z,5.93
2023-08-25T11:11:13.816Z,5.35
2023-08-25T11:13:41.392Z,6.60
2023-08-25T11:16:13.232Z,6.22
2023-08-25T11:18:42.349Z,7.18
2023-08-25T11:21:09.413Z,5.15
2023-08-25T11:23:43.750Z,3.55
2023-08-25T11:26:11.147Z,6.68
2023-08-25T11:28:38.430Z,4.25
2023-08-25T11:31:05.610Z,5.95
2023-08-25T11:33:33.219Z,9.73
2023-08-25T11:36:00.843Z,7.82
2023-08-25T11:38:32.780Z,4.82
2023-08-25T11:40:59.693Z,5.40
2023-08-25T11:43:37.672Z,4.55
2023-08-25T11:46:08.199Z,5.15
2023-08-25T11:48:35.407Z,6.28
2023-08-25T11:51:02.399Z,5.95
2023-08-25T11:53:29.263Z,4.97
2023-08-25T11:56:03.711Z,3.58
2023-08-25T11:58:31.913Z,5.22
2023-08-25T12:01:16.638Z,6.72
2023-08-25T12:03:46.396Z,5.82
2023-08-25T12:06:13.792Z,4.97
2023-08-25T12:08:41.885Z,6.30
2023-08-25T12:11:10.347Z,5.20
2023-08-25T12:13:41.681Z,8.18
2023-08-25T12:16:08.468Z,6.20
2023-08-25T12:18:37.188Z,6.88
2023-08-25T12:21:06.565Z,7.45
2023-08-25T12:23:35.924Z,7.25
2023-08-25T12:26:04.692Z,12.57
2023-08-25T12:28:35.505Z,6.18
2023-08-25T12:31:03.149Z,6.50
2023-08-25T12:33:30.311Z,9.38
2023-08-25T12:35:59.111Z,9.25
2023-08-25T12:38:26.278Z,5.93
2023-08-25T12:40:53.133Z,8.88
2023-08-25T12:43:20.572Z,5.78
2023-08-25T12:45:48.829Z,5.82
2023-08-25T12:48:16.877Z,9.30
2023-08-25T12:50:43.786Z,10.85
2023-08-25T12:53:11.003Z,7.50
2023-08-25T12:55:37.898Z,6.90
2023-08-25T12:58:05.071Z,7.80
2023-08-25T13:00:32.103Z,9.63
2023-08-25T13:02:59.301Z,8.10
2023-08-25T13:05:26.962Z,6.28
2023-08-25T13:07:53.977Z,7.53
2023-08-25T13:10:21.180Z,9.77
2023-08-25T13:12:47.917Z,9.70
2023-08-25T13:15:15.641Z,10.02
2023-08-25T13:17:43.592Z,6.22
2023-08-25T13:20:10.638Z,9.35
2023-08-25T13:22:37.343Z,10.27
2023-08-25T13:25:04.267Z,11.35
2023-08-25T13:27:33.010Z,9.88
2023-08-25T13:30:01.249Z,12.15
2023-08-25T13:32:28.045Z,11.60
2023-08-25T13:34:54.853Z,22.75
2023-08-25T13:37:21.716Z,9.85
2023-08-25T13:39:48.998Z,11.40
2023-08-25T13:42:16.544Z,9.40
2023-08-25T13:44:43.210Z,8.57
2023-08-25T13:47:10.042Z,11.73
2023-08-25T13:49:37.878Z,10.88
2023-08-25T13:52:04.744Z,13.63
2023-08-25T13:54:32.171Z,11.63
2023-08-25T13:56:59.626Z,15.57
2023-08-25T13:59:26.782Z,8.20
2023-08-25T14:01:53.569Z,18.17
2023-08-25T14:04:20.410Z,8.05
2023-08-25T14:06:47.085Z,10.90
2023-08-25T14:09:13.724Z,8.90
2023-08-25T14:11:40.743Z,8.73
2023-08-25T14:14:08.615Z,9.57
2023-08-25T14:16:36.005Z,10.50
2023-08-25T14:19:03.093Z,10.95
2023-08-25T14:21:29.772Z,8.48
2023-08-25T14:23:58.690Z,10.48
2023-08-25T14:26:27.691Z,8.98
2023-08-25T14:28:55.337Z,11.30
2023-08-25T14:31:22.065Z,13.30
2023-08-25T14:33:49.058Z,12.57
2023-08-25T14:36:15.961Z,11.32
2023-08-25T14:38:42.698Z,8.85
2023-08-25T14:41:09.375Z,13.95
2023-08-25T14:43:36.024Z,12.95
2023-08-25T14:46:04.785Z,11.85
2023-08-25T14:48:31.772Z,9.63
2023-08-25T14:50:59.909Z,13.18
2023-08-25T14:53:27.885Z,11.50
2023-08-25T14:55:54.930Z,9.80
2023-08-25T14:58:22.165Z,10.13
2023-08-25T15:00:56.769Z,11.02
2023-08-25T15:03:24.672Z,11.20
2023-08-25T15:05:58.917Z,11.57
2023-08-25T15:08:26.684Z,12.52
2023-08-25T15:10:53.463Z,14.40
2023-08-25T15:13:20.167Z,11.50
2023-08-25T15:15:50.869Z,12.55
2023-08-25T15:18:18.231Z,8.80
2023-08-25T15:20:44.967Z,14.25
2023-08-25T15:23:12.095Z,12.05
2023-08-25T15:25:39.014Z,10.40
2023-08-25T15:28:05.952Z,9.65
2023-08-25T15:30:33.069Z,10.55
2023-08-25T15:32:59.840Z,12.77
2023-08-25T15:35:28.726Z,11.63
2023-08-25T15:37:55.824Z,14.27
2023-08-25T15:40:24.150Z,9.18
2023-08-25T15:42:51.272Z,15.55
2023-08-25T15:45:18.184Z,8.40
2023-08-25T15:47:45.481Z,13.98
2023-08-25T15:50:12.228Z,10.30
2023-08-25T15:52:39.058Z,11.23
2023-08-25T15:55:06.595Z,10.52
2023-08-25T15:57:42.513Z,7.95
2023-08-25T16:00:11.005Z,9.55
2023-08-25T16:02:41.014Z,11.35
2023-08-25T16:05:08.471Z,12.18
2023-08-25T16:07:35.185Z,10.55
2023-08-25T16:10:02.121Z,18.00
2023-08-25T16:12:29.029Z,10.50
2023-08-25T16:14:56.065Z,10.68
2023-08-25T16:17:22.730Z,11.60
2023-08-25T16:19:49.350Z,12.63
2023-08-25T16:22:16.101Z,10.43
2023-08-25T16:24:42.997Z,8.20
2023-08-25T16:27:09.775Z,10.65
2023-08-25T16:29:36.444Z,10.70
2023-08-25T16:32:04.354Z,12.18
2023-08-25T16:34:31.086Z,11.07
2023-08-25T16:37:00.644Z,15.90
2023-08-25T16:39:27.831Z,8.82
2023-08-25T16:41:55.741Z,12.10
2023-08-25T16:44:22.642Z,14.02
2023-08-25T16:46:49.344Z,7.70
2023-08-25T16:49:16.410Z,8.02
2023-08-25T16:51:43.325Z,8.48
2023-08-25T16:54:10.138Z,7.82
2023-08-25T16:56:36.867Z,8.45
2023-08-25T16:59:03.885Z,10.52
2023-08-25T17:01:31.769Z,10.88
2023-08-25T17:03:58.751Z,11.70
2023-08-25T17:06:25.579Z,11.02
2023-08-25T17:08:52.718Z,11.18
2023-08-25T17:11:19.515Z,15.07
2023-08-25T17:13:46.224Z,13.57
2023-08-25T17:16:14.278Z,9.48
2023-08-25T17:18:41.199Z,10.15
2023-08-25T17:21:07.890Z,12.88
2023-08-25T17:23:34.675Z,10.10
2023-08-25T17:26:01.863Z,12.27
2023-08-25T17:28:28.619Z,85.20
2023-08-25T17:31:09.046Z,57.08
2023-08-25T17:33:37.336Z,24.48
2023-08-25T17:36:05.726Z,25.88
2023-08-25T17:38:32.676Z,21.73
2023-08-25T17:41:07.549Z,20.90
2023-08-25T17:43:35.058Z,11.52
2023-08-25T17:46:04.632Z,14.82
2023-08-25T17:48:33.264Z,10.88
2023-08-25T17:50:59.948Z,11.35
2023-08-25T17:53:26.734Z,13.60
2023-08-25T17:55:54.228Z,11.90
2023-08-25T17:58:21.011Z,8.57
2023-08-25T18:00:47.707Z,12.40
2023-08-25T18:03:15.176Z,12.45
2023-08-25T18:05:42.218Z,11.00
2023-08-25T18:08:08.969Z,9.43
2023-08-25T18:10:38.837Z,12.00
2023-08-25T18:13:05.546Z,8.77
2023-08-25T18:15:32.707Z,11.00
2023-08-25T18:17:59.347Z,12.10
2023-08-25T18:20:26.638Z,12.73
2023-08-25T18:22:53.568Z,12.57
2023-08-25T18:25:20.763Z,11.25
2023-08-25T18:27:47.708Z,9.40
2023-08-25T18:30:15.630Z,10.40
2023-08-25T18:32:42.452Z,11.98
2023-08-25T18:35:09.231Z,10.75
2023-08-25T18:37:36.168Z,10.05
2023-08-25T18:40:03.085Z,11.15
2023-08-25T18:42:29.759Z,12.38
2023-08-25T18:44:56.636Z,11.02
2023-08-25T18:47:23.313Z,11.93
2023-08-25T18:49:50.255Z,13.50
2023-08-25T18:52:16.935Z,16.15
2023-08-25T18:54:43.679Z,11.25
2023-08-25T18:57:10.906Z,14.52
2023-08-25T18:59:38.256Z,13.52
2023-08-25T19:02:05.299Z,13.55
2023-08-25T19:04:32.099Z,15.05
2023-08-25T19:06:58.730Z,10.52
2023-08-25T19:09:25.754Z,13.48
2023-08-25T19:11:52.488Z,11.30
2023-08-25T19:14:19.363Z,11.63
2023-08-25T19:16:46.237Z,11.23
2023-08-25T19:19:12.875Z,13.50
2023-08-25T19:21:39.781Z,13.32
2023-08-25T19:24:07.184Z,11.23
2023-08-25T19:26:33.881Z,10.57
2023-08-25T19:29:00.816Z,10.23
2023-08-25T19:31:27.564Z,13.32
2023-08-25T19:33:55.756Z,13.32
2023-08-25T19:36:23.097Z,18.80
2023-08-25T19:38:49.762Z,20.05
2023-08-25T19:41:16.681Z,20.45
2023-08-25T19:43:44.437Z,14.40
2023-08-25T19:46:11.136Z,11.20
2023-08-25T19:48:41.887Z,11.60
2023-08-25T19:51:09.678Z,12.13
2023-08-25T19:53:39.029Z,11.35
2023-08-25T19:56:06.622Z,14.00
2023-08-25T19:58:34.140Z,13.43
2023-08-25T20:01:01.692Z,14.88
2023-08-25T20:03:29.431Z,14.98
2023-08-25T20:06:05.034Z,12.80
2023-08-25T20:08:32.310Z,16.58
2023-08-25T20:11:00.078Z,16.58
2023-08-25T20:13:27.030Z,14.20
2023-08-25T20:15:54.746Z,12.68
2023-08-25T20:18:21.530Z,15.35
2023-08-25T20:20:48.489Z,12.13
2023-08-25T20:23:16.756Z,9.68
2023-08-25T20:25:44.772Z,11.38
2023-08-25T20:28:13.360Z,13.55
2023-08-25T20:30:40.592Z,10.50
2023-08-25T20:33:07.926Z,10.30
2023-08-25T20:35:39.034Z,12.40
2023-08-25T20:38:07.353Z,13.40
2023-08-25T20:40:34.511Z,8.65
2023-08-25T20:43:01.299Z,12.93
2023-08-25T20:45:28.721Z,12.32
2023-08-25T20:47:55.397Z,14.38
2023-08-25T20:50:23.157Z,8.93
2023-08-25T20:52:49.919Z,11.98
2023-08-25T20:55:16.536Z,12.23
2023-08-25T20:57:43.307Z,14.60
2023-08-25T21:00:10.540Z,10.60
2023-08-25T21:02:37.448Z,14.95
2023-08-25T21:05:04.691Z,13.57
2023-08-25T21:07:31.557Z,21.75
2023-08-25T21:09:58.448Z,13.20
2023-08-25T21:12:25.124Z,14.27
2023-08-25T21:14:52.282Z,13.55
2023-08-25T21:17:19.449Z,11.95
2023-08-25T21:19:48.067Z,15.50
2023-08-25T21:22:14.812Z,14.30
2023-08-25T21:24:42.695Z,13.55
2023-08-25T21:27:09.920Z,15.38
2023-08-25T21:29:38.283Z,15.15
2023-08-25T21:32:05.721Z,13.18
2023-08-25T21:34:32.624Z,10.23
2023-08-25T21:36:59.332Z,14.50
2023-08-25T21:39:26.074Z,10.05
2023-08-25T21:41:52.834Z,18.38
2023-08-25T21:44:20.010Z,14.65
2023-08-25T21:46:46.706Z,14.50
2023-08-25T21:49:13.417Z,15.05
2023-08-25T21:51:40.081Z,10.95
2023-08-25T21:54:09.489Z,9.70
2023-08-25T21:56:36.456Z,11.82
2023-08-25T21:59:03.464Z,11.23
2023-08-25T22:01:30.451Z,8.68
2023-08-25T22:03:57.241Z,10.02
2023-08-25T22:06:23.954Z,16.50
2023-08-25T22:08:51.041Z,10.98
2023-08-25T22:11:17.844Z,12.88
2023-08-25T22:13:44.619Z,10.88
2023-08-25T22:16:11.529Z,12.90
2023-08-25T22:18:38.332Z,9.48
2023-08-25T22:21:05.658Z,12.68
2023-08-25T22:23:32.613Z,10.98
2023-08-25T22:25:59.315Z,13.93
2023-08-25T22:28:25.981Z,13.50
2023-08-25T22:30:52.600Z,11.95
2023-08-25T22:35:49.048Z,14.07
2023-08-25T22:38:15.688Z,14.15
2023-08-25T22:40:42.378Z,11.77
2023-08-25T22:43:09.114Z,15.38
2023-08-25T22:45:35.885Z,11.82
2023-08-25T22:48:02.749Z,13.23
2023-08-25T22:50:29.715Z,15.68
2023-08-25T22:52:56.710Z,11.95
2023-08-25T22:55:23.376Z,11.77
2023-08-25T22:57:50.057Z,13.77
2023-08-25T23:00:16.996Z,10.95
2023-08-25T23:02:47.053Z,12.45
2023-08-25T23:05:14.247Z,11.95
2023-08-25T23:07:40.869Z,10.88
2023-08-25T23:10:07.918Z,12.50
2023-08-25T23:12:34.558Z,10.45
2023-08-25T23:15:01.280Z,14.75
2023-08-25T23:17:28.005Z,11.55
2023-08-25T23:19:54.785Z,11.93
2023-08-25T23:22:21.769Z,11.20
2023-08-25T23:24:48.462Z,11.95
2023-08-25T23:27:15.792Z,10.23
2023-08-25T23:29:42.535Z,10.20
2023-08-25T23:32:09.309Z,11.23
2023-08-25T23:34:36.547Z,10.98
2023-08-25T23:37:03.936Z,11.15
2023-08-25T23:39:31.465Z,12.38
2023-08-25T23:41:58.089Z,17.33
2023-08-25T23:44:27.435Z,9.15
2023-08-25T23:46:54.858Z,11.03
2023-08-25T23:49:21.881Z,9.43
2023-08-25T23:51:49.596Z,12.52
2023-08-25T23:54:16.470Z,14.68
2023-08-25T23:56:43.143Z,10.85
2023-08-25T23:59:09.915Z,9.88
